ROMMA est une association bénévole à but non lucratif. Votre soutien est indispensable : ADHERER à ROMMA ou FAIRE un DON

Crempigny-Bonneguête - (74, Haute-Savoie)

Albanais-Montagne des Princes (500 m)   Longitude: 05° 54' 5" E   Latitude: 45° 57' 0" N Station partenaire n°10
 

Détail journalier du     <<     >>

Température Precipitation Humidité Pression Vent Dir Rafale Dir. rafale Ensol. 20 cm au dessus du sol
Heure (°C) (mm) (%) (hPa) (km/h) (km/h) (min) (°C)
01:00 13.406610233NNO6NNO011.1
02:00 13.106610233NO8NO011.7
03:00 12.606810234NO6NO011.1
04:00 11.707010233NO8NO010.0
05:00 10.707410233NO6NO08.9
06:00 10.607510243NO6NO09.4
07:00 9.607810243NO6NO07.2
08:00 9.308210251NO5NO08.3
09:00 10.5084102603NO010.6
10:00 12.407710262OSO5NO4515.0
11:00 15.607110263OSO8SO6018.3
12:00 18.705510264SSO11O6021.1
13:00 20.304710254NNE13N6022.8
14:00 21.103710255SE13SE6023.3
15:00 22.103410256E18ESE6023.3
16:00 21.703710244N11NE5523.3
17:00 21.404610243SSO16SO2521.7
18:00 22.204210243SO11SSO2022.8
19:00 19.904210248NNE19NE3018.9
20:00 17.705010259NO19NNO016.7
21:00 17.404810256NO11NO016.1
22:00 17.204910259NO11NNO016.1
23:00 16.605110268NNO15NO015.6
minuit 15.005510267NNO15N013.3

Graphique du 19-04-2019

 

Serveur OMMA